Hawick, Minnesota
Current Conditions -  °F | °C
As of 11:14 AM on Thursday 23 Oct 2014 (Local Time) from KPEX Reporting Station
Clear Clear  
Wind Chill: 51°   Ceiling: Unl
Heat Index: NA   Visibility: 10mi
Dew Point: 51°   Wind: 0mph
Humidity: NA   Direction: NA
Pressure: 29.99"   Gusts: NA
Location:  45.35°N, 94.83°W
Report Text: KPEX 231614Z AUTO 00000KT 10SM CLR 10/11 A2999 RMK AO2 T01040105
Loading
Personal Weather Stations






























Interactive Weather Map
Tropical Storm Tracking
New forecast layout! Learn more

10-Day Weather Forecast

Advertisements
Track Severe Weather on mobile